Terminal Aerodrome Forecast
Issued by NWS

Home | Current Version | Previous Version | Text Only | Print | Product List | Glossary On
Versions: 1 2 3 4 5 6 7 8 9 10 11 12
577
FTUS42 KMLB 111129
TAFSFB
TAF
KSFB 111129Z 1112/1212 04004KT P6SM FEW035 SCT080
     FM111400 05008KT P6SM SCT035
     FM111500 09012KT P6SM BKN040
     FM112200 10010KT P6SM SCT040 BKN100
     FM120000 13005KT P6SM SCT030 SCT070
      TEMPO 1207/1211 3SM BR FEW020 SCT100=

USA.gov is the U.S. government's official web portal to all federal, state and local government web resources and services.